Metar z pełnej godziny Komunikat METAR ze strony awiacja.imgw.pl Metar G00 EPLB METAR EPLB 200400Z 26012KT 9999 SCT012 04/03 Q1013 =